LETO METAR and TAF | Updated Today

LETO METAR

Torrejón Airport

Observation time: 10 min. ago

LETO 062000Z VRB02KT CAVOK 18/06 Q1024 NOSIG

Need help? Read our tutorial on how to read METARs or read the parsed version below.

Torrejón Airport (LETO) METAR

  • Weather conditions on Thu, 06 Oct 2022 20:00:00 +0000 (10 min. ago):
  • Present conditions: Dry
  • Clouds: Clear skies
  • Visibility: Greater than 10 km
  • Wind: Variable at 2 knots
  • Temperature: 18 celsius
  • Dew point: 6 celsius
  • Pressure: 1024 millibars
  • Remarks: None


Useful to know...

LETO TAF

Torrejón Airport

TAF COR LETO 061807Z 0618/0718 VRB05KT CAVOK TX25/0715Z TN10/0706Z PROB40 TEMPO 0619/0623 15010KT
Observation time: 2:03 hr. ago
Need help? Read our tutorial on how to read TAFs or read the parsed version below.

Parsed version of TAF for Torrejón Airport (LETO)

  • From 06 October at 18:00 UTC, to day 07 of the month at 18:00 UTC
  • Visibility: Greater than 10 km
  • Wind: Variable at 5
  • Expected to arise temporarily, from 06 October at 19:00 UTC, to day 06 of the month at 23:00 UTC
    Probability of 40%
  • Wind: 150 degrees at 10